Create Tblcommutelog Verified Points Advance Search
| # | Trip ID | Id Commuter | Trip Date | Trip Num | Current Lat | Current Lng | Delta Distance | Current Time | Activity | Activity Confidence | Current Speed | |
|---|---|---|---|---|---|---|---|---|---|---|---|---|
| 70301 | 250523_776186_16511869_0653 | 776186 | (not set) | (not set) | 39.05328609526 | -77.136386614151 | 2.6028 | 2025-05-23 11:16:58.276 | in_vehicle | 100 | 1.6272229027153 | |
| 70302 | 250523_776186_16511869_0653 | 776186 | (not set) | (not set) | 39.053278316168 | -77.136372049372 | 2.6028 | 2025-05-23 11:16:59.106 | in_vehicle | 100 | 0.83596341430704 | |
| 70303 | 250523_770872_16486958_0638 | 770872 | (not set) | (not set) | 39.2825501 | -76.6256297 | 26.2098 | 2025-05-23 11:17:02.187 | in_vehicle | 100 | 9.8438044829097 | |
| 70304 | 250523_785264_6438355_0716 | 785264 | (not set) | (not set) | 38.959716260469 | -77.417464060781 | 0 | 2025-05-23 11:17:08.3 | on_foot | 100 | 0.46492082934723 | |
| 70305 | 250523_785264_6438355_0716 | 785264 | (not set) | (not set) | 38.959716260469 | -77.417464060781 | 0.03 | 2025-05-23 11:17:08.302 | on_foot | 100 | 0.46492082934723 | |
| 70306 | 250523_784104_6438355_0713 | 784104 | (not set) | (not set) | 39.104904645484 | -77.156649332985 | 1.2026 | 2025-05-23 11:17:08.858 | in_vehicle | 100 | -0.44703925898772 | |
| 70307 | 250523_784104_6438355_0713 | 784104 | (not set) | (not set) | 39.104904645484 | -77.156649332985 | 1.2026 | 2025-05-23 11:17:08.869 | in_vehicle | 100 | -0.44703925898772 | |
| 70308 | 250523_784104_6438355_0713 | 784104 | (not set) | (not set) | 39.104075892865 | -77.15568364605 | 1.2798 | 2025-05-23 11:17:09.877 | still | 33 | 14.318667465377 | |
| 70309 | 250523_784815_16448780_0708 | 784815 | (not set) | (not set) | 39.302537626884 | -76.579622992442 | 8.7071 | 2025-05-23 11:17:10.243 | in_vehicle | 100 | 9.1955975573775 | |
| 70310 | 250523_775339_16505279_0634 | 775339 | (not set) | (not set) | 38.892520412859 | -77.066517212198 | 24.4457 | 2025-05-23 11:17:11.277 | in_vehicle | 100 | 10.894346741531 | |
| 70311 | 250523_784917_16428364_0629 | 784917 | (not set) | (not set) | 38.967661915507 | -77.449690978974 | 17.0302 | 2025-05-23 11:17:11.409 | in_vehicle | 100 | 6.9469900846692 | |
| 70312 | 250523_770872_16486958_0638 | 770872 | (not set) | (not set) | 39.2847636 | -76.6268391 | 26.3757 | 2025-05-23 11:17:14.166 | in_vehicle | 100 | 9.8214525199603 | |
| 70313 | 250523_781944_6458276_0705 | 781944 | (not set) | (not set) | 38.899395679846 | -77.006969450593 | 0.4975 | 2025-05-23 11:17:14.287 | on_foot | 100 | 0.48727279229662 | |
| 70314 | 250523_782322_16504834_0706 | 782322 | (not set) | (not set) | 39.156317277848 | -77.242362080214 | 1.42 | 2025-05-23 11:17:20.431 | unknown | 100 | 3.7596001680868 | |
| 70315 | 250523_782322_16504834_0706 | 782322 | (not set) | (not set) | 39.160527196368 | -77.25136507685 | 1.42 | 2025-05-23 11:17:20.99 | unknown | 100 | 4.1976986418947 | |
| 70316 | 250523_784104_6438355_0713 | 784104 | (not set) | (not set) | 39.101001075505 | -77.15458427563 | 1.5 | 2025-05-23 11:17:21.207 | in_vehicle | 100 | 14.640535731848 | |
| 70317 | 250523_784815_16448780_0708 | 784815 | (not set) | (not set) | 39.302165852239 | -76.582612968753 | 8.8694 | 2025-05-23 11:17:23.253 | in_vehicle | 100 | 8.7530286909796 | |
| 70318 | 250523_775339_16505279_0634 | 775339 | (not set) | (not set) | 38.89169354672 | -77.063219192802 | 24.6325 | 2025-05-23 11:17:24.278 | in_vehicle | 100 | 10.836231637862 | |
| 70319 | 250523_784917_16428364_0629 | 784917 | (not set) | (not set) | 38.965781376258 | -77.449729578466 | 17.16 | 2025-05-23 11:17:24.419 | in_vehicle | 100 | 7.2777991363202 | |
| 70320 | 250523_770872_16486958_0638 | 770872 | (not set) | (not set) | 39.2870102 | -76.6279989 | 26.5427 | 2025-05-23 11:17:27.174 | in_vehicle | 100 | 7.7963646767459 |